Nearby METAR Reports

 

ENCN - Kristiansand/Kje, Norway
Distance from station: N 17km
Actualizado: 22/08/2019 19:50
Nearby showers, Parcialmente nublado
Nearby showers, Parcialmente nublado
 Vento de WSW
Vento: WSW 13 km/h
Temperatura: 16°C
Ponto de Orvalho: 14°C
Humidade: 88%
Barómetro: 1018 hPa
Resumo: Nearby Showers
Clouds: Parcialmente nublado
Visibility: 10 km
Cloud details: Few Clouds 610 m
Parcialmente nublado 1676 m
2019/08/22 17:50 ENCN 221750Z 24007KT 9999 VCSH FEW020TCU SCT055 16/14 Q1018
EKSN - Sindal Airport, Denmark
Distance from station: ESE 145km
Actualizado: 22/08/2019 15:50
NOT Current
Chuva fraca, Showers, Muito nublado
Chuva fraca, Showers, Muito nublado
 Vento de SSW
Vento: SSW 22 km/h
Temperatura: 17°C
Ponto de Orvalho: 12°C
Humidade: 73%
Barómetro: 1021 hPa
Resumo: Chuva fraca, Showers
Clouds: Muito nublado
Visibility: 10 km
Cloud details: Few Clouds 610 m
Muito nublado 1372 m
2019/08/22 13:50 EKSN 221350Z 20012KT 9999 -SHRA FEW020 BKN045 17/12 Q1021
 
EKYT - Alborg, Denmark
Distance from station: SE 153km
Actualizado: 22/08/2019 19:50
Muito nublado
Muito nublado
 Vento de SW
Vento: SW 20 km/h
Temperatura: 16°C
Ponto de Orvalho: 13°C
Humidade: 83%
Barómetro: 1021 hPa
Clouds: Muito nublado
Visibility: 10 km
Cloud details: Few Clouds 1067 m
Muito nublado 1829 m
2019/08/22 17:50 EKYT 221750Z AUTO 22011KT 9999 FEW035/// BKN060/// 16/13 Q1021
ENSN - Skien/Geiterygge, Norway
Distance from station: NE 153km
Actualizado: 09/11/2015 09:50
NOT Current
Céu Limpo
Céu Limpo
 Vento de SSW
Vento: SSW 19 km/h, Rajada: 41 km/h
Temperatura: 7°C
Wind Chill: 4°C
Ponto de Orvalho: 3°C
Humidade: 76%
Barómetro: 1000 hPa
Resumo: Céu Limpo
Visibility: greater than 10 km
2015/11/09 08:50 ENSN 090850Z 20010G22KT 150V240 CAVOK 07/03 Q1000
 
ENZV - Stavanger/Sola(A, Norway
Distance from station: NW 166km
Actualizado: 22/08/2019 19:50
Parcialmente nublado
Parcialmente nublado
 Vento de SSE
Vento: SSE 20 km/h
Temperatura: 16°C
Ponto de Orvalho: 11°C
Humidade: 72%
Barómetro: 1015 hPa
Clouds: Parcialmente nublado
Visibility: 10 km
Cloud details: Few Clouds 762 m
Parcialmente nublado 914 m
2019/08/22 17:50 ENZV 221750Z 16011KT 9999 FEW025TCU SCT030 16/11 Q1015 NOSIG
ENNO - Notodden, Norway
Distance from station: NNE 182km
Actualizado: 22/08/2019 18:50
NOT Current
Chuva fraca, Muito nublado
Chuva fraca, Muito nublado
 Vento de SE
Vento: SE 6 km/h
Temperatura: 15°C
Ponto de Orvalho: 14°C
Humidade: 94%
Barómetro: 1015 hPa
Resumo: Chuva fraca
Clouds: Muito nublado
Visibility: 10 km
Cloud details: Few Clouds 213 m
Parcialmente nublado 762 m
Muito nublado 1219 m
2019/08/22 16:50 ENNO 221650Z 14003KT 080V190 9999 -RA FEW007 SCT025 BKN040 15/14 Q1015
 
ENTO - Torp (civ/Nor-Af, Norway
Distance from station: NE 183km
Actualizado: 22/08/2019 19:50
Parcialmente nublado
Parcialmente nublado
 Vento de SSW
Vento: SSW 26 km/h
Temperatura: 15°C
Ponto de Orvalho: 12°C
Humidade: 82%
Barómetro: 1017 hPa
Clouds: Parcialmente nublado
Visibility: 10 km
Cloud details: Parcialmente nublado 457 m
2019/08/22 17:50 ENTO 221750Z 21014KT 9999 SCT015 15/12 Q1017 NOSIG
EKKA - Karup (dan-Afb), Denmark
Distance from station: SSE 209km
Actualizado: 22/08/2019 19:50
Muito nublado
Muito nublado
 Vento de SW
Vento: SW 11 km/h
Temperatura: 16°C
Ponto de Orvalho: 13°C
Humidade: 83%
Barómetro: 1022 hPa
Clouds: Muito nublado
Visibility: 10 km
Cloud details: Muito nublado 2499 m
2019/08/22 17:50 EKKA 221750Z AUTO 22006KT 9999 BKN082/// 16/13 Q1022
 
ENHD - Haugesund/Karmoy, Norway
Distance from station: NW 216km
Actualizado: 22/08/2019 19:50
Parcialmente nublado
Parcialmente nublado
 Vento de S
Vento: S 20 km/h
Temperatura: 16°C
Ponto de Orvalho: 10°C
Humidade: 68%
Barómetro: 1014 hPa
Clouds: Parcialmente nublado
Visibility: 10 km
Cloud details: Few Clouds 701 m
Parcialmente nublado 1829 m
2019/08/22 17:50 ENHD 221750Z 17011KT 9999 FEW023 SCT060 16/10 Q1014
ENRY - Rygge (nor-Afb), Norway
Distance from station: NE 216km
Actualizado: 22/08/2019 19:50
Muito nublado
Muito nublado
 Vento de SSW
Vento: SSW 24 km/h
Temperatura: 15°C
Ponto de Orvalho: 12°C
Humidade: 82%
Barómetro: 1017 hPa
Clouds: Muito nublado
Visibility: 10 km
Cloud details: Muito nublado 457 m
2019/08/22 17:50 ENRY 221750Z 20013KT 9999 BKN015 15/12 Q1017
 
ESGP - Goteborg/Save (a, Sweden
Distance from station: E 230km
Actualizado: 02/01/2017 11:20
NOT Current
Céu Limpo
Céu Limpo
 Vento de calm
Vento: Calmo
Temperatura: -2°C
Ponto de Orvalho: -4°C
Humidade: 86%
Barómetro: 1012 hPa
Clouds: Céu Limpo
Visibility: 10 km
2017/01/02 10:20 ESGP 021020Z AUTO 00000KT 9999 NCD M02/M04 Q1012
EKVJ - Stauning Airport, Denmark
Distance from station: S 233km
Actualizado: 22/08/2019 15:50
NOT Current
Chuva fraca, Muito nublado
Chuva fraca, Muito nublado
 Vento de SW
Vento: SW 28 km/h
Temperatura: 19°C
Ponto de Orvalho: 16°C
Humidade: 83%
Barómetro: 1023 hPa
Resumo: Chuva fraca
Clouds: Muito nublado
Visibility: 10 km
Cloud details: Few Clouds 975 m
Muito nublado 3658 m
2019/08/22 13:50 EKVJ 221350Z 22015KT 9999 -RA FEW032 BKN120 19/16 Q1023
 
ENSO - Stord/Soerstokke, Norway
Distance from station: NW 246km
Actualizado: 22/08/2019 19:20
Parcialmente nublado
Parcialmente nublado
 Vento de S
Vento: S 22 km/h
Temperatura: 15°C
Ponto de Orvalho: 10°C
Humidade: 72%
Barómetro: 1014 hPa
Clouds: Parcialmente nublado
Visibility: 10 km
Cloud details: Parcialmente nublado 1067 m
2019/08/22 17:20 ENSO 221720Z 18012KT 9999 SCT035TCU 15/10 Q1014
EKAH - Tirstrup (civ/Mi, Denmark
Distance from station: SE 252km
Actualizado: 22/08/2019 19:50
Muito nublado
Muito nublado
 Vento de SW
Vento: SW 9 km/h
Temperatura: 20°C
Ponto de Orvalho: 11°C
Humidade: 56%
Barómetro: 1023 hPa
Clouds: Muito nublado
Visibility: 10 km
Cloud details: Parcialmente nublado 1615 m
Parcialmente nublado 2377 m
Muito nublado 2835 m
Muito nublado 3962 m
2019/08/22 17:50 EKAH 221750Z AUTO 23005KT 200V270 9999NDV SCT053/// SCT078/// BKN093/// BKN130/// 20/11 Q1023
 
ESGT - Trollhattan (pvt, Sweden
Distance from station: E 255km
Actualizado: 22/08/2019 19:50
Chuva fraca, Encoberto
Chuva fraca, Encoberto
 Vento de S
Vento: S 11 km/h
Temperatura: 14°C
Ponto de Orvalho: 13°C
Humidade: 94%
Barómetro: 1020 hPa
Resumo: Chuva fraca
Clouds: Encoberto
Visibility: 10 km
Cloud details: Few Clouds 457 m
Muito nublado 2256 m
Encoberto 2743 m
2019/08/22 17:50 ESGT 221750Z 17006KT 9999 -RA FEW015 BKN074 OVC090 14/13 Q1020
ESGG - Goteborg/Landvet, Sweden
Distance from station: E 257km
Actualizado: 22/08/2019 19:50
Chuva fraca, Muito nublado
Chuva fraca, Muito nublado
 Vento de WSW
Vento: WSW 15 km/h
Temperatura: 14°C
Ponto de Orvalho: 12°C
Humidade: 88%
Barómetro: 1021 hPa
Resumo: Chuva fraca
Clouds: Muito nublado
Visibility: 6 km
Cloud details: Few Clouds 671 m
Muito nublado 1433 m
2019/08/22 17:50 ESGG 221750Z 25008KT 220V310 6000 -RA FEW022 BKN047 14/12 Q1021
 
EKBI - Billund Airport, Denmark
Distance from station: SSE 269km
Actualizado: 22/08/2019 19:50
Muito nublado
Muito nublado
 Vento de SW
Vento: SW 17 km/h
Temperatura: 18°C
Ponto de Orvalho: 13°C
Humidade: 73%
Barómetro: 1023 hPa
Clouds: Muito nublado
Visibility: 10 km
Cloud details: Muito nublado 2042 m
2019/08/22 17:50 EKBI 221750Z AUTO 22009KT 200V260 9999 BKN067/// 18/13 Q1023
EKHN - Horns Rev B Heli, Denmark
Distance from station: S 274km
Actualizado: 09/08/2016 14:20
NOT Current
Few Clouds
Few Clouds
 Vento de WNW
Vento: WNW 50 km/h, Rajada: 72 km/h
Temperatura: 14°C
Ponto de Orvalho: 10°C
Humidade: 77%
Barómetro: 1018 hPa
Clouds: Few Clouds
Visibility: 10 km
Cloud details: Few Clouds 1158 m
Few Clouds 2438 m
2016/08/09 12:20 EKHN 091220Z AUTO 29027G39KT 270V340 9999NDV FEW038/// FEW080/// 14/10 Q1018
 
ESIB - Satenas (swe-Afb, Sweden
Distance from station: E 277km
Actualizado: 22/08/2019 19:50
Chuva fraca, Showers, Muito nublado
Chuva fraca, Showers, Muito nublado
 Vento de SSW
Vento: SSW 20 km/h
Temperatura: 14°C
Ponto de Orvalho: 14°C
Humidade: 100%
Barómetro: 1020 hPa
Resumo: Chuva fraca, Showers
Clouds: Muito nublado
Visibility: 10 km
Cloud details: Few Clouds 701 m
Parcialmente nublado 1189 m
Muito nublado 1585 m
2019/08/22 17:50 ESIB 221750Z AUTO 21011KT 9999 -SHRA FEW023/// SCT039/// BKN052/// 14/14 Q1020 RESHRA
EKHR - Horns Rev B Heli, Denmark
Distance from station: S 282km
Actualizado: 04/10/2016 06:20
NOT Current
Céu Limpo
Céu Limpo
 Vento de E
Vento: E 4 km/h
Temperatura: 11°C
Ponto de Orvalho: -49°C
Humidade: 0%
Barómetro: 1038 hPa
Clouds: Céu Limpo
Visibility: 10 km
2016/10/04 04:20 EKHR 040420Z AUTO 08002KT 9999NDV NCD 11/M49 Q1038